createdAt,value
2022-10-10T00:01:31.886Z,86.40
2022-10-10T00:04:00.425Z,87.70
2022-10-10T00:06:32.811Z,87.90
2022-10-10T00:09:00.895Z,88.20
2022-10-10T00:11:28.585Z,88.40
2022-10-10T00:13:55.899Z,88.40
2022-10-10T00:16:23.188Z,89.00
2022-10-10T00:18:52.018Z,89.50
2022-10-10T00:21:19.289Z,89.50
2022-10-10T00:23:46.514Z,89.00
2022-10-10T00:26:18.592Z,87.60
2022-10-10T00:28:47.812Z,88.40
2022-10-10T00:31:15.140Z,88.60
2022-10-10T00:33:42.365Z,88.90
2022-10-10T00:36:09.961Z,89.50
2022-10-10T00:38:37.309Z,89.90
2022-10-10T00:41:05.009Z,88.70
2022-10-10T00:43:35.675Z,89.20
2022-10-10T00:46:02.943Z,88.50
2022-10-10T00:48:50.790Z,88.60
2022-10-10T00:51:19.234Z,88.50
2022-10-10T00:53:48.983Z,88.30
2022-10-10T00:56:20.476Z,89.50
2022-10-10T00:58:53.544Z,89.70
2022-10-10T01:01:20.945Z,89.90
2022-10-10T01:03:48.898Z,90.00
2022-10-10T01:06:16.460Z,89.10
2022-10-10T01:08:43.839Z,89.30
2022-10-10T01:11:23.171Z,89.20
2022-10-10T01:14:07.221Z,89.30
2022-10-10T01:16:46.941Z,89.30
2022-10-10T01:19:54.693Z,90.00
2022-10-10T01:23:08.991Z,89.90
2022-10-10T01:25:57.697Z,90.00
2022-10-10T01:28:43.393Z,90.10
2022-10-10T01:31:13.724Z,90.20
2022-10-10T01:34:03.942Z,90.40
2022-10-10T01:36:38.412Z,90.40
2022-10-10T01:39:41.253Z,90.40
2022-10-10T01:42:20.368Z,90.20
2022-10-10T01:44:48.252Z,90.10
2022-10-10T01:47:15.571Z,90.20
2022-10-10T01:49:45.124Z,90.40
2022-10-10T01:52:43.147Z,90.80
2022-10-10T01:55:34.520Z,90.60
2022-10-10T01:59:00.344Z,90.50
2022-10-10T02:01:43.238Z,90.40
2022-10-10T02:04:51.455Z,90.40
2022-10-10T02:07:43.443Z,90.50
2022-10-10T02:10:14.398Z,90.50
2022-10-10T02:12:41.875Z,90.40
2022-10-10T02:15:22.454Z,90.50
2022-10-10T02:17:51.795Z,90.60
2022-10-10T02:20:22.143Z,90.60
2022-10-10T02:22:51.139Z,90.70
2022-10-10T02:25:23.943Z,90.80
2022-10-10T02:28:03.160Z,90.90
2022-10-10T02:30:32.971Z,91.00
2022-10-10T02:33:02.368Z,90.90
2022-10-10T02:35:34.815Z,90.90
2022-10-10T02:38:04.132Z,91.00
2022-10-10T02:40:34.100Z,90.90
2022-10-10T02:43:05.172Z,91.00
2022-10-10T02:45:33.393Z,91.30
2022-10-10T02:48:01.797Z,91.10
2022-10-10T02:50:30.380Z,91.00
2022-10-10T02:52:58.372Z,91.10
2022-10-10T02:55:26.625Z,91.70
2022-10-10T02:57:53.900Z,91.70
2022-10-10T03:00:21.749Z,91.80
2022-10-10T03:02:49.381Z,91.60
2022-10-10T03:05:16.937Z,91.50
2022-10-10T03:07:44.200Z,91.30
2022-10-10T03:10:11.531Z,91.10
2022-10-10T03:12:38.811Z,90.90
2022-10-10T03:15:10.649Z,90.70
2022-10-10T03:17:39.393Z,90.50
2022-10-10T03:20:07.612Z,90.30
2022-10-10T03:22:35.100Z,90.10
2022-10-10T03:25:02.415Z,89.90
2022-10-10T03:27:29.780Z,89.40
2022-10-10T03:29:57.013Z,89.30
2022-10-10T03:32:24.344Z,88.90
2022-10-10T03:34:51.703Z,88.60
2022-10-10T03:37:19.078Z,88.30
2022-10-10T03:39:46.511Z,88.00
2022-10-10T03:42:13.724Z,87.70
2022-10-10T03:44:40.998Z,87.30
2022-10-10T03:47:08.624Z,87.00
2022-10-10T03:49:35.880Z,86.80
2022-10-10T03:52:03.137Z,86.60
2022-10-10T03:54:30.496Z,86.40
2022-10-10T03:56:57.827Z,86.30
2022-10-10T03:59:25.301Z,86.20
2022-10-10T04:01:52.553Z,86.00
2022-10-10T04:04:19.816Z,85.90
2022-10-10T04:06:47.128Z,85.60
2022-10-10T04:09:14.352Z,85.60
2022-10-10T04:11:41.769Z,85.40
2022-10-10T04:14:09.109Z,85.50
2022-10-10T04:16:36.339Z,85.40
2022-10-10T04:19:03.652Z,85.50
2022-10-10T04:21:30.926Z,85.50
2022-10-10T04:23:58.150Z,85.60
2022-10-10T04:26:25.588Z,85.60
2022-10-10T04:28:53.182Z,85.60
2022-10-10T04:31:20.387Z,85.60
2022-10-10T04:33:47.607Z,85.70
2022-10-10T04:36:14.816Z,85.80
2022-10-10T04:38:42.161Z,85.80
2022-10-10T04:41:09.760Z,85.90
2022-10-10T04:43:37.176Z,86.50
2022-10-10T04:46:04.580Z,85.90
2022-10-10T04:48:31.816Z,85.90
2022-10-10T04:51:00.158Z,86.00
2022-10-10T04:53:28.370Z,85.90
2022-10-10T04:55:55.765Z,85.90
2022-10-10T04:58:23.101Z,85.90
2022-10-10T05:00:54.994Z,85.80
2022-10-10T05:03:23.624Z,85.80
2022-10-10T05:05:50.941Z,85.60
2022-10-10T05:08:19.118Z,85.50
2022-10-10T05:10:47.667Z,85.40
2022-10-10T05:13:16.014Z,85.30
2022-10-10T05:15:44.022Z,85.50
2022-10-10T05:18:11.403Z,85.60
2022-10-10T05:20:38.853Z,85.50
2022-10-10T05:23:06.195Z,85.60
2022-10-10T05:25:33.468Z,85.70
2022-10-10T05:28:00.770Z,85.70
2022-10-10T05:30:28.102Z,85.80
2022-10-10T05:32:55.386Z,85.90
2022-10-10T05:35:23.023Z,85.90
2022-10-10T05:37:50.224Z,85.80
2022-10-10T05:40:17.524Z,85.90
2022-10-10T05:42:44.874Z,86.40
2022-10-10T05:45:12.126Z,85.80
2022-10-10T05:47:39.539Z,85.80
2022-10-10T05:50:07.871Z,85.70
2022-10-10T05:52:36.163Z,85.60
2022-10-10T05:55:03.859Z,85.60
2022-10-10T05:57:31.207Z,85.50
2022-10-10T05:59:58.445Z,85.30
2022-10-10T06:02:25.687Z,85.20
2022-10-10T06:04:52.921Z,85.20
2022-10-10T06:07:20.141Z,85.20
2022-10-10T06:09:47.356Z,85.00
2022-10-10T06:12:14.634Z,84.90
2022-10-10T06:14:41.947Z,84.90
2022-10-10T06:17:09.241Z,84.80
2022-10-10T06:19:36.474Z,84.90
2022-10-10T06:22:03.793Z,84.90
2022-10-10T06:24:31.584Z,84.50
2022-10-10T06:26:58.792Z,84.60
2022-10-10T06:29:26.384Z,84.80
2022-10-10T06:31:53.619Z,84.70
2022-10-10T06:34:21.007Z,84.50
2022-10-10T06:36:50.742Z,84.50
2022-10-10T06:39:18.644Z,84.20
2022-10-10T06:41:45.918Z,83.90
2022-10-10T06:44:13.118Z,83.70
2022-10-10T06:46:40.417Z,83.40
2022-10-10T06:49:07.746Z,83.00
2022-10-10T06:51:35.179Z,82.90
2022-10-10T06:54:02.426Z,82.70
2022-10-10T06:56:30.575Z,82.50
2022-10-10T06:58:57.795Z,81.90
2022-10-10T07:01:26.332Z,81.80
2022-10-10T07:03:54.038Z,81.40
2022-10-10T07:06:21.753Z,81.00
2022-10-10T07:08:49.048Z,80.80
2022-10-10T07:11:16.368Z,80.60
2022-10-10T07:13:43.604Z,80.70
2022-10-10T07:16:11.786Z,80.20
2022-10-10T07:18:39.142Z,80.10
2022-10-10T07:21:06.818Z,79.60
2022-10-10T07:23:34.356Z,79.40
2022-10-10T07:26:07.009Z,79.40
2022-10-10T07:28:35.016Z,79.80
2022-10-10T07:31:05.160Z,79.10
2022-10-10T07:33:46.069Z,78.90
2022-10-10T07:36:16.311Z,78.80
2022-10-10T07:38:43.602Z,78.40
2022-10-10T07:41:13.586Z,78.00
2022-10-10T07:43:41.856Z,77.90
2022-10-10T07:46:16.101Z,78.00
2022-10-10T07:48:43.730Z,77.90
2022-10-10T07:51:11.994Z,77.80
2022-10-10T07:53:40.784Z,77.40
2022-10-10T07:56:09.691Z,77.50
2022-10-10T07:58:37.505Z,77.30
2022-10-10T08:01:05.499Z,77.10
2022-10-10T08:03:32.944Z,77.00
2022-10-10T08:06:04.257Z,77.40
2022-10-10T08:08:34.231Z,76.80
2022-10-10T08:11:04.270Z,76.90
2022-10-10T08:13:32.201Z,76.80
2022-10-10T08:15:59.873Z,76.80
2022-10-10T08:18:27.092Z,76.80
2022-10-10T08:21:23.699Z,76.70
2022-10-10T08:23:51.105Z,77.00
2022-10-10T08:26:20.046Z,77.00
2022-10-10T08:28:48.610Z,77.00
2022-10-10T08:31:18.685Z,76.90
2022-10-10T08:33:48.056Z,76.20
2022-10-10T08:36:21.549Z,75.80
2022-10-10T08:38:49.212Z,75.60
2022-10-10T08:41:31.453Z,75.20
2022-10-10T08:44:03.548Z,75.40
2022-10-10T08:46:41.247Z,75.50
2022-10-10T08:49:27.661Z,74.50
2022-10-10T08:52:01.890Z,74.20
2022-10-10T08:54:31.935Z,74.70
2022-10-10T08:57:03.238Z,74.30
2022-10-10T08:59:35.538Z,73.60
2022-10-10T09:02:29.578Z,73.90
2022-10-10T09:05:13.920Z,73.50
2022-10-10T09:07:56.393Z,73.40
2022-10-10T09:10:40.741Z,73.60
2022-10-10T09:13:14.334Z,73.30
2022-10-10T09:16:01.380Z,72.90
2022-10-10T09:18:39.004Z,72.70
2022-10-10T09:21:12.715Z,72.60
2022-10-10T09:23:53.688Z,73.20
2022-10-10T09:26:28.062Z,72.90
2022-10-10T09:29:28.233Z,73.40
2022-10-10T09:32:21.439Z,73.10
2022-10-10T09:34:58.866Z,73.60
2022-10-10T09:37:46.744Z,73.10
2022-10-10T09:40:23.889Z,73.20
2022-10-10T09:42:51.182Z,73.00
2022-10-10T09:45:23.532Z,72.10
2022-10-10T09:47:54.553Z,72.00
2022-10-10T09:50:23.135Z,72.10
2022-10-10T09:52:51.772Z,71.90
2022-10-10T09:55:34.595Z,72.00
2022-10-10T09:58:14.250Z,71.30
2022-10-10T10:00:41.932Z,71.10
2022-10-10T10:03:09.169Z,70.90
2022-10-10T10:05:36.750Z,71.00
2022-10-10T10:08:04.337Z,70.90
2022-10-10T10:10:35.450Z,70.50
2022-10-10T10:13:02.982Z,70.60
2022-10-10T10:15:32.027Z,70.30
2022-10-10T10:18:17.361Z,70.20
2022-10-10T10:20:53.458Z,70.10
2022-10-10T10:23:26.848Z,70.30
2022-10-10T10:26:02.634Z,70.10
2022-10-10T10:28:30.350Z,70.00
2022-10-10T10:30:59.097Z,69.50
2022-10-10T10:33:46.797Z,69.50
2022-10-10T10:36:16.859Z,69.50
2022-10-10T10:39:14.171Z,69.70
2022-10-10T10:41:54.768Z,68.70
2022-10-10T10:44:36.124Z,67.70
2022-10-10T10:47:22.650Z,67.60
2022-10-10T10:50:08.669Z,67.90
2022-10-10T10:52:38.655Z,68.20
2022-10-10T10:55:27.245Z,68.20
2022-10-10T11:01:44.809Z,68.90
2022-10-10T11:05:19.114Z,69.30
2022-10-10T11:07:20.597Z,69.70
2022-10-10T11:10:26.150Z,69.80
2022-10-10T11:13:04.016Z,70.50
2022-10-10T11:16:05.603Z,70.70
2022-10-10T11:18:38.734Z,70.50
2022-10-10T11:21:19.042Z,70.60
2022-10-10T11:23:50.366Z,70.60
2022-10-10T11:26:26.480Z,70.70
2022-10-10T11:29:30.739Z,70.60
2022-10-10T11:35:09.336Z,70.00
2022-10-10T11:37:43.101Z,69.80
2022-10-10T11:40:30.295Z,69.60
2022-10-10T11:43:04.763Z,69.30
2022-10-10T11:45:44.271Z,69.00
2022-10-10T11:48:45.790Z,69.30
2022-10-10T11:51:30.058Z,69.20
2022-10-10T11:54:02.656Z,69.00
2022-10-10T11:56:36.786Z,69.00
2022-10-10T11:59:16.011Z,69.00
2022-10-10T12:01:48.797Z,69.30
2022-10-10T12:04:16.643Z,69.10
2022-10-10T12:06:56.915Z,69.10
2022-10-10T12:09:35.021Z,69.20
2022-10-10T12:12:08.928Z,69.50
2022-10-10T12:14:39.493Z,69.70
2022-10-10T12:17:29.796Z,69.30
2022-10-10T12:20:30.669Z,69.80
2022-10-10T12:23:27.603Z,70.00
2022-10-10T12:25:55.135Z,69.80
2022-10-10T12:28:36.876Z,69.80
2022-10-10T12:31:04.571Z,70.00
2022-10-10T12:33:32.031Z,69.90
2022-10-10T12:36:19.491Z,70.10
2022-10-10T12:39:01.925Z,70.40
2022-10-10T12:41:58.447Z,70.80
2022-10-10T12:44:34.566Z,70.60
2022-10-10T12:47:16.717Z,70.50
2022-10-10T12:50:06.520Z,69.80
2022-10-10T12:52:48.110Z,69.60
2022-10-10T12:55:21.469Z,69.00
2022-10-10T12:57:52.468Z,68.60
2022-10-10T13:00:21.766Z,68.70
2022-10-10T13:02:58.936Z,68.60
2022-10-10T13:05:34.996Z,68.70
2022-10-10T13:08:08.392Z,68.20
2022-10-10T13:10:35.663Z,68.10
2022-10-10T13:13:13.112Z,67.40
2022-10-10T13:15:50.437Z,67.50
2022-10-10T13:18:34.339Z,67.50
2022-10-10T13:21:03.249Z,67.30
2022-10-10T13:23:31.041Z,67.20
2022-10-10T13:25:59.667Z,67.10
2022-10-10T13:28:27.259Z,67.30
2022-10-10T13:30:54.909Z,67.20
2022-10-10T13:33:25.810Z,67.30
2022-10-10T13:35:53.438Z,67.00
2022-10-10T13:38:24.570Z,67.90
2022-10-10T13:40:52.344Z,67.20
2022-10-10T13:43:20.043Z,67.60
2022-10-10T13:45:56.595Z,67.50
2022-10-10T13:48:35.991Z,68.10
2022-10-10T13:51:11.940Z,67.30
2022-10-10T13:53:42.271Z,67.60
2022-10-10T13:56:18.153Z,67.60
2022-10-10T13:58:52.616Z,67.40
2022-10-10T14:01:49.950Z,67.40
2022-10-10T14:04:24.683Z,67.80
2022-10-10T14:07:11.551Z,67.80
2022-10-10T14:09:40.211Z,67.80
2022-10-10T14:12:15.888Z,67.70
2022-10-10T14:14:50.924Z,67.90
2022-10-10T14:17:18.701Z,67.90
2022-10-10T14:19:47.234Z,68.00
2022-10-10T14:22:14.529Z,68.00
2022-10-10T14:24:41.781Z,68.30
2022-10-10T14:27:24.698Z,68.40
2022-10-10T14:29:55.022Z,68.50
2022-10-10T14:32:22.892Z,68.70
2022-10-10T14:34:50.487Z,68.90
2022-10-10T14:37:21.125Z,69.00
2022-10-10T14:39:48.482Z,69.10
2022-10-10T14:42:18.043Z,69.50
2022-10-10T14:44:45.808Z,69.80
2022-10-10T14:47:19.266Z,70.10
2022-10-10T14:49:47.071Z,70.20
2022-10-10T14:52:14.767Z,70.40
2022-10-10T14:54:41.975Z,70.60
2022-10-10T14:57:12.868Z,70.70
2022-10-10T14:59:47.845Z,70.80
2022-10-10T15:02:22.055Z,71.00
2022-10-10T15:04:50.267Z,71.20
2022-10-10T15:07:17.819Z,71.50
2022-10-10T15:12:35.916Z,72.00
2022-10-10T15:15:03.890Z,72.20
2022-10-10T15:17:34.577Z,72.40
2022-10-10T15:20:03.338Z,72.40
2022-10-10T15:22:30.907Z,72.50
2022-10-10T15:24:58.319Z,72.70
2022-10-10T15:27:28.050Z,73.00
2022-10-10T15:29:56.452Z,73.10
2022-10-10T15:32:24.135Z,74.10
2022-10-10T15:34:51.874Z,73.60
2022-10-10T15:37:19.582Z,73.80
2022-10-10T15:39:47.744Z,74.10
2022-10-10T15:42:22.186Z,74.20
2022-10-10T15:44:50.555Z,74.20
2022-10-10T15:47:18.926Z,74.50
2022-10-10T15:49:46.551Z,74.60
2022-10-10T15:52:14.039Z,74.80
2022-10-10T15:54:41.496Z,75.10
2022-10-10T15:57:08.723Z,75.50
2022-10-10T15:59:38.062Z,75.80
2022-10-10T16:02:09.426Z,76.20
2022-10-10T16:04:37.251Z,76.40
2022-10-10T16:07:24.503Z,76.70
2022-10-10T16:09:53.247Z,77.00
2022-10-10T16:12:20.600Z,77.40
2022-10-10T16:14:47.940Z,77.90
2022-10-10T16:17:18.447Z,78.30
2022-10-10T16:19:48.091Z,78.50
2022-10-10T16:22:15.306Z,78.70
2022-10-10T16:24:44.546Z,79.10
2022-10-10T16:27:17.395Z,79.30
2022-10-10T16:29:44.712Z,79.50
2022-10-10T16:32:11.970Z,79.80
2022-10-10T16:34:39.332Z,80.10
2022-10-10T16:37:06.619Z,80.20
2022-10-10T16:39:33.923Z,80.50
2022-10-10T16:42:01.139Z,80.70
2022-10-10T16:44:28.387Z,80.90
2022-10-10T16:46:55.613Z,81.20
2022-10-10T16:49:23.527Z,81.30
2022-10-10T16:51:50.976Z,81.40
2022-10-10T16:54:18.315Z,81.50
2022-10-10T16:56:45.667Z,81.80
2022-10-10T16:59:13.015Z,81.80
2022-10-10T17:01:40.419Z,81.80
2022-10-10T17:04:08.499Z,81.80
2022-10-10T17:06:38.514Z,81.90
2022-10-10T17:09:07.919Z,81.90
2022-10-10T17:11:36.322Z,81.90
2022-10-10T17:14:04.052Z,81.80
2022-10-10T17:17:07.058Z,81.80
2022-10-10T17:19:18.660Z,81.80
2022-10-10T17:21:45.863Z,81.80
2022-10-10T17:24:13.316Z,81.70
2022-10-10T17:26:40.603Z,81.80
2022-10-10T17:29:08.117Z,81.70
2022-10-10T17:31:35.408Z,81.80
2022-10-10T17:34:02.656Z,81.90
2022-10-10T17:36:29.899Z,81.90
2022-10-10T17:39:00.012Z,81.90
2022-10-10T17:41:28.642Z,82.00
2022-10-10T17:43:56.354Z,82.10
2022-10-10T17:46:35.271Z,82.10
2022-10-10T17:49:05.229Z,82.30
2022-10-10T17:51:32.546Z,82.40
2022-10-10T17:54:00.783Z,82.40
2022-10-10T17:56:28.327Z,82.50
2022-10-10T17:58:55.671Z,82.70
2022-10-10T18:01:23.096Z,82.80
2022-10-10T18:03:51.286Z,82.80
2022-10-10T18:06:21.647Z,82.90
2022-10-10T18:08:50.669Z,83.00
2022-10-10T18:11:21.166Z,83.10
2022-10-10T18:13:48.826Z,83.20
2022-10-10T18:16:18.544Z,83.30
2022-10-10T18:18:50.954Z,83.30
2022-10-10T18:21:23.503Z,83.40
2022-10-10T18:23:51.633Z,83.50
2022-10-10T18:26:21.739Z,83.50
2022-10-10T18:28:52.221Z,83.60
2022-10-10T18:31:22.389Z,83.70
2022-10-10T18:33:50.179Z,83.50
2022-10-10T18:36:20.692Z,83.50
2022-10-10T18:38:48.278Z,83.50
2022-10-10T18:41:23.998Z,83.60
2022-10-10T18:43:51.864Z,83.70
2022-10-10T18:46:20.873Z,83.60
2022-10-10T18:48:52.990Z,83.70
2022-10-10T18:51:26.548Z,83.70
2022-10-10T18:54:00.783Z,83.90
2022-10-10T18:56:29.676Z,84.00
2022-10-10T18:59:01.043Z,84.00
2022-10-10T19:01:30.722Z,84.10
2022-10-10T19:03:58.011Z,84.20
2022-10-10T19:06:26.160Z,84.30
2022-10-10T19:08:58.553Z,84.40
2022-10-10T19:11:29.569Z,84.40
2022-10-10T19:13:59.718Z,84.50
2022-10-10T19:16:27.262Z,84.60
2022-10-10T19:18:58.578Z,84.60
2022-10-10T19:21:29.543Z,84.70
2022-10-10T19:24:02.223Z,84.70
2022-10-10T19:26:33.352Z,84.70
2022-10-10T19:29:07.010Z,84.80
2022-10-10T19:31:36.620Z,85.00
2022-10-10T19:34:05.071Z,85.60
2022-10-10T19:36:32.907Z,85.20
2022-10-10T19:39:00.623Z,85.40
2022-10-10T19:41:28.706Z,85.40
2022-10-10T19:43:58.078Z,85.50
2022-10-10T19:46:26.918Z,85.60
2022-10-10T19:48:57.891Z,85.70
2022-10-10T19:51:27.497Z,85.80
2022-10-10T19:53:55.337Z,85.90
2022-10-10T19:56:27.005Z,86.00
2022-10-10T19:58:56.620Z,86.10
2022-10-10T20:01:29.072Z,86.20
2022-10-10T20:03:57.945Z,86.40
2022-10-10T20:06:25.708Z,86.40
2022-10-10T20:08:52.961Z,86.60
2022-10-10T20:11:20.994Z,86.80
2022-10-10T20:13:52.008Z,86.90
2022-10-10T20:16:20.222Z,87.00
2022-10-10T20:18:47.453Z,87.00
2022-10-10T20:21:19.126Z,87.20
2022-10-10T20:23:47.898Z,87.40
2022-10-10T20:26:19.170Z,87.50
2022-10-10T20:28:47.705Z,87.80
2022-10-10T20:31:19.790Z,87.90
2022-10-10T20:33:48.606Z,88.10
2022-10-10T20:36:16.764Z,88.10
2022-10-10T20:38:44.397Z,88.30
2022-10-10T20:41:11.724Z,88.40
2022-10-10T20:43:39.358Z,88.40
2022-10-10T20:46:09.284Z,88.40
2022-10-10T20:48:37.220Z,88.40
2022-10-10T20:51:12.577Z,88.40
2022-10-10T20:53:44.070Z,88.50
2022-10-10T20:56:12.911Z,88.50
2022-10-10T20:58:40.826Z,88.50
2022-10-10T21:01:13.887Z,88.60
2022-10-10T21:03:42.740Z,88.40
2022-10-10T21:06:16.000Z,88.30
2022-10-10T21:08:43.721Z,88.40
2022-10-10T21:11:15.360Z,88.50
2022-10-10T21:13:45.768Z,88.70
2022-10-10T21:16:16.005Z,88.80
2022-10-10T21:18:53.420Z,88.80
2022-10-10T21:21:27.109Z,88.80
2022-10-10T21:23:56.474Z,88.70
2022-10-10T21:26:26.542Z,88.70
2022-10-10T21:28:55.199Z,88.90
2022-10-10T21:31:25.305Z,88.90
2022-10-10T21:33:54.143Z,89.00
2022-10-10T21:36:23.038Z,89.00
2022-10-10T21:38:50.314Z,89.00
2022-10-10T21:41:19.597Z,89.10
2022-10-10T21:43:49.812Z,89.10
2022-10-10T21:46:20.021Z,89.00
2022-10-10T21:48:47.378Z,89.30
2022-10-10T21:51:16.074Z,89.10
2022-10-10T21:53:44.194Z,89.00
2022-10-10T21:56:11.948Z,89.10
2022-10-10T21:58:41.593Z,89.40
2022-10-10T22:01:18.522Z,90.00
2022-10-10T22:03:48.057Z,90.10
2022-10-10T22:06:18.249Z,90.20
2022-10-10T22:08:47.058Z,90.30
2022-10-10T22:11:17.055Z,90.30
2022-10-10T22:13:44.862Z,90.30
2022-10-10T22:16:12.595Z,90.30
2022-10-10T22:18:40.454Z,90.40
2022-10-10T22:21:11.318Z,90.80
2022-10-10T22:23:39.176Z,90.60
2022-10-10T22:26:10.966Z,90.60
2022-10-10T22:28:39.054Z,90.60
2022-10-10T22:31:13.079Z,90.60
2022-10-10T22:33:40.719Z,90.70
2022-10-10T22:36:09.466Z,90.70
2022-10-10T22:38:42.806Z,90.70
2022-10-10T22:41:11.161Z,90.80
2022-10-10T22:43:38.475Z,90.80
2022-10-10T22:46:06.263Z,90.90
2022-10-10T22:48:34.039Z,90.90
2022-10-10T22:51:16.643Z,90.80
2022-10-10T22:53:45.402Z,90.90
2022-10-10T22:56:17.585Z,91.10
2022-10-10T22:58:44.923Z,90.80
2022-10-10T23:01:16.743Z,90.90
2022-10-10T23:03:44.558Z,90.90
2022-10-10T23:06:12.859Z,90.90
2022-10-10T23:08:40.558Z,90.90
2022-10-10T23:11:08.047Z,91.20
2022-10-10T23:13:35.549Z,90.90
2022-10-10T23:16:03.134Z,90.90
2022-10-10T23:18:32.293Z,91.00
2022-10-10T23:20:59.775Z,91.00
2022-10-10T23:23:27.035Z,91.00
2022-10-10T23:25:54.267Z,91.00
2022-10-10T23:28:21.889Z,91.00
2022-10-10T23:30:49.331Z,90.90
2022-10-10T23:33:17.535Z,90.90
2022-10-10T23:35:45.110Z,90.90
2022-10-10T23:38:12.786Z,91.00
2022-10-10T23:40:40.153Z,91.00
2022-10-10T23:43:08.009Z,91.00
2022-10-10T23:45:35.240Z,91.00
2022-10-10T23:48:02.461Z,91.00
2022-10-10T23:50:29.991Z,90.90
2022-10-10T23:52:57.223Z,91.00
2022-10-10T23:55:24.433Z,91.10
2022-10-10T23:57:51.671Z,91.10
